sensor_id;sensor_type;location;lat;lon;timestamp;P1;durP1;ratioP1;P2;durP2;ratioP2
74749;SDS011;63269;53.330;-6.288;2023-04-12T00:01:46;4.00;;;0.82;;
74749;SDS011;63269;53.330;-6.288;2023-04-12T00:04:12;3.78;;;1.63;;
74749;SDS011;63269;53.330;-6.288;2023-04-12T00:06:40;6.03;;;1.85;;
74749;SDS011;63269;53.330;-6.288;2023-04-12T00:09:05;3.92;;;1.05;;
74749;SDS011;63269;53.330;-6.288;2023-04-12T00:11:32;3.58;;;1.20;;
74749;SDS011;63269;53.330;-6.288;2023-04-12T00:13:57;2.88;;;1.17;;
74749;SDS011;63269;53.330;-6.288;2023-04-12T00:16:23;4.25;;;1.00;;
74749;SDS011;63269;53.330;-6.288;2023-04-12T00:18:48;4.57;;;1.13;;
74749;SDS011;63269;53.330;-6.288;2023-04-12T00:21:15;2.58;;;1.02;;
74749;SDS011;63269;53.330;-6.288;2023-04-12T00:23:44;3.92;;;0.98;;
74749;SDS011;63269;53.330;-6.288;2023-04-12T00:26:11;2.67;;;1.10;;
74749;SDS011;63269;53.330;-6.288;2023-04-12T00:28:38;2.58;;;0.90;;
74749;SDS011;63269;53.330;-6.288;2023-04-12T00:31:03;6.07;;;1.65;;
74749;SDS011;63269;53.330;-6.288;2023-04-12T00:33:29;3.00;;;0.75;;
74749;SDS011;63269;53.330;-6.288;2023-04-12T00:35:54;2.33;;;0.90;;
74749;SDS011;63269;53.330;-6.288;2023-04-12T00:38:19;4.43;;;1.10;;
74749;SDS011;63269;53.330;-6.288;2023-04-12T00:40:45;2.58;;;0.68;;
74749;SDS011;63269;53.330;-6.288;2023-04-12T00:43:10;3.88;;;1.00;;
74749;SDS011;63269;53.330;-6.288;2023-04-12T00:45:39;3.20;;;1.10;;
74749;SDS011;63269;53.330;-6.288;2023-04-12T00:48:05;3.50;;;0.80;;
74749;SDS011;63269;53.330;-6.288;2023-04-12T00:50:30;2.72;;;0.98;;
74749;SDS011;63269;53.330;-6.288;2023-04-12T00:52:56;3.08;;;1.20;;
74749;SDS011;63269;53.330;-6.288;2023-04-12T00:55:22;4.13;;;1.33;;
74749;SDS011;63269;53.330;-6.288;2023-04-12T00:57:48;2.53;;;0.95;;
74749;SDS011;63269;53.330;-6.288;2023-04-12T01:00:14;4.35;;;0.70;;
74749;SDS011;63269;53.330;-6.288;2023-04-12T01:02:41;2.80;;;0.82;;
74749;SDS011;63269;53.330;-6.288;2023-04-12T01:05:11;2.10;;;0.90;;
74749;SDS011;63269;53.330;-6.288;2023-04-12T01:10:31;1.85;;;0.80;;
74749;SDS011;63269;53.330;-6.288;2023-04-12T01:15:31;3.30;;;0.90;;
74749;SDS011;63269;53.330;-6.288;2023-04-12T01:18:07;3.35;;;0.70;;
74749;SDS011;63269;53.330;-6.288;2023-04-12T01:20:39;2.55;;;0.73;;
74749;SDS011;63269;53.330;-6.288;2023-04-12T01:25:57;3.60;;;0.77;;
74749;SDS011;63269;53.330;-6.288;2023-04-12T01:28:37;2.67;;;0.80;;
74749;SDS011;63269;53.330;-6.288;2023-04-12T01:31:05;2.88;;;0.80;;
74749;SDS011;63269;53.330;-6.288;2023-04-12T01:33:33;2.80;;;1.15;;
74749;SDS011;63269;53.330;-6.288;2023-04-12T01:36:03;2.63;;;0.88;;
74749;SDS011;63269;53.330;-6.288;2023-04-12T01:38:40;2.60;;;0.75;;
74749;SDS011;63269;53.330;-6.288;2023-04-12T01:41:06;2.28;;;0.80;;
74749;SDS011;63269;53.330;-6.288;2023-04-12T01:43:32;4.35;;;1.33;;
74749;SDS011;63269;53.330;-6.288;2023-04-12T01:45:58;2.17;;;0.70;;
74749;SDS011;63269;53.330;-6.288;2023-04-12T01:48:23;3.30;;;0.73;;
74749;SDS011;63269;53.330;-6.288;2023-04-12T01:53:34;2.90;;;0.85;;
74749;SDS011;63269;53.330;-6.288;2023-04-12T01:56:18;4.63;;;0.98;;
74749;SDS011;63269;53.330;-6.288;2023-04-12T01:58:46;2.97;;;0.75;;
74749;SDS011;63269;53.330;-6.288;2023-04-12T02:01:14;1.15;;;0.40;;
74749;SDS011;63269;53.330;-6.288;2023-04-12T02:03:41;3.88;;;0.93;;
74749;SDS011;63269;53.330;-6.288;2023-04-12T02:06:08;1.52;;;0.50;;
74749;SDS011;63269;53.330;-6.288;2023-04-12T02:08:34;1.92;;;0.45;;
74749;SDS011;63269;53.330;-6.288;2023-04-12T02:11:00;2.65;;;0.65;;
74749;SDS011;63269;53.330;-6.288;2023-04-12T02:13:25;1.50;;;0.40;;
74749;SDS011;63269;53.330;-6.288;2023-04-12T02:15:51;2.83;;;0.60;;
74749;SDS011;63269;53.330;-6.288;2023-04-12T02:18:18;4.22;;;1.50;;
74749;SDS011;63269;53.330;-6.288;2023-04-12T02:20:44;2.30;;;0.60;;
74749;SDS011;63269;53.330;-6.288;2023-04-12T02:23:10;2.83;;;0.70;;
74749;SDS011;63269;53.330;-6.288;2023-04-12T02:25:36;3.00;;;1.30;;
74749;SDS011;63269;53.330;-6.288;2023-04-12T02:28:03;0.98;;;0.60;;
74749;SDS011;63269;53.330;-6.288;2023-04-12T02:30:30;2.10;;;0.80;;
74749;SDS011;63269;53.330;-6.288;2023-04-12T02:32:56;2.00;;;0.90;;
74749;SDS011;63269;53.330;-6.288;2023-04-12T02:35:21;1.88;;;0.60;;
74749;SDS011;63269;53.330;-6.288;2023-04-12T02:37:47;2.35;;;0.70;;
74749;SDS011;63269;53.330;-6.288;2023-04-12T02:40:13;2.00;;;0.50;;
74749;SDS011;63269;53.330;-6.288;2023-04-12T02:42:42;1.75;;;0.60;;
74749;SDS011;63269;53.330;-6.288;2023-04-12T02:45:09;2.15;;;0.50;;
74749;SDS011;63269;53.330;-6.288;2023-04-12T02:47:35;3.40;;;0.70;;
74749;SDS011;63269;53.330;-6.288;2023-04-12T02:50:02;2.22;;;0.85;;
74749;SDS011;63269;53.330;-6.288;2023-04-12T02:52:28;1.55;;;0.40;;
74749;SDS011;63269;53.330;-6.288;2023-04-12T02:54:54;2.38;;;0.43;;
74749;SDS011;63269;53.330;-6.288;2023-04-12T02:57:20;1.45;;;0.50;;
74749;SDS011;63269;53.330;-6.288;2023-04-12T02:59:45;2.35;;;0.50;;
74749;SDS011;63269;53.330;-6.288;2023-04-12T03:02:13;1.95;;;0.88;;
74749;SDS011;63269;53.330;-6.288;2023-04-12T03:04:38;2.15;;;0.70;;
74749;SDS011;63269;53.330;-6.288;2023-04-12T03:07:04;2.10;;;0.63;;
74749;SDS011;63269;53.330;-6.288;2023-04-12T03:09:30;1.25;;;0.40;;
74749;SDS011;63269;53.330;-6.288;2023-04-12T03:11:56;2.60;;;0.65;;
74749;SDS011;63269;53.330;-6.288;2023-04-12T03:14:22;2.70;;;0.50;;
74749;SDS011;63269;53.330;-6.288;2023-04-12T03:16:47;1.77;;;0.40;;
74749;SDS011;63269;53.330;-6.288;2023-04-12T03:19:15;2.03;;;0.60;;
74749;SDS011;63269;53.330;-6.288;2023-04-12T03:21:41;1.85;;;0.57;;
74749;SDS011;63269;53.330;-6.288;2023-04-12T03:24:06;1.50;;;0.55;;
74749;SDS011;63269;53.330;-6.288;2023-04-12T03:26:32;1.85;;;0.43;;
74749;SDS011;63269;53.330;-6.288;2023-04-12T03:28:58;1.60;;;0.30;;
74749;SDS011;63269;53.330;-6.288;2023-04-12T03:31:25;1.73;;;0.55;;
74749;SDS011;63269;53.330;-6.288;2023-04-12T03:33:52;1.45;;;0.50;;
74749;SDS011;63269;53.330;-6.288;2023-04-12T03:36:18;1.50;;;0.40;;
74749;SDS011;63269;53.330;-6.288;2023-04-12T03:38:45;2.92;;;0.50;;
74749;SDS011;63269;53.330;-6.288;2023-04-12T03:41:11;1.13;;;0.63;;
74749;SDS011;63269;53.330;-6.288;2023-04-12T03:43:36;2.13;;;0.70;;
74749;SDS011;63269;53.330;-6.288;2023-04-12T03:46:02;1.50;;;0.50;;
74749;SDS011;63269;53.330;-6.288;2023-04-12T03:48:28;1.98;;;0.63;;
74749;SDS011;63269;53.330;-6.288;2023-04-12T03:50:53;1.23;;;0.40;;
74749;SDS011;63269;53.330;-6.288;2023-04-12T03:53:19;1.38;;;0.65;;
74749;SDS011;63269;53.330;-6.288;2023-04-12T03:55:45;1.33;;;0.43;;
74749;SDS011;63269;53.330;-6.288;2023-04-12T03:58:11;4.57;;;1.40;;
74749;SDS011;63269;53.330;-6.288;2023-04-12T04:00:37;1.48;;;0.40;;
74749;SDS011;63269;53.330;-6.288;2023-04-12T04:03:03;1.63;;;0.40;;
74749;SDS011;63269;53.330;-6.288;2023-04-12T04:05:29;1.40;;;0.40;;
74749;SDS011;63269;53.330;-6.288;2023-04-12T04:07:55;2.58;;;1.20;;
74749;SDS011;63269;53.330;-6.288;2023-04-12T04:10:25;1.10;;;0.47;;
74749;SDS011;63269;53.330;-6.288;2023-04-12T04:12:51;3.08;;;0.40;;
74749;SDS011;63269;53.330;-6.288;2023-04-12T04:15:17;1.40;;;0.50;;
74749;SDS011;63269;53.330;-6.288;2023-04-12T04:17:42;1.00;;;0.65;;
74749;SDS011;63269;53.330;-6.288;2023-04-12T04:20:08;1.35;;;0.45;;
74749;SDS011;63269;53.330;-6.288;2023-04-12T04:22:36;1.98;;;0.30;;
74749;SDS011;63269;53.330;-6.288;2023-04-12T04:25:02;1.40;;;0.40;;
74749;SDS011;63269;53.330;-6.288;2023-04-12T04:27:27;1.42;;;0.35;;
74749;SDS011;63269;53.330;-6.288;2023-04-12T04:29:54;2.47;;;0.43;;
74749;SDS011;63269;53.330;-6.288;2023-04-12T04:32:23;1.25;;;0.30;;
74749;SDS011;63269;53.330;-6.288;2023-04-12T04:34:49;2.67;;;0.45;;
74749;SDS011;63269;53.330;-6.288;2023-04-12T04:37:15;2.05;;;0.70;;
74749;SDS011;63269;53.330;-6.288;2023-04-12T04:39:42;1.38;;;0.50;;
74749;SDS011;63269;53.330;-6.288;2023-04-12T04:42:08;2.92;;;0.68;;
74749;SDS011;63269;53.330;-6.288;2023-04-12T04:44:33;1.70;;;0.50;;
74749;SDS011;63269;53.330;-6.288;2023-04-12T04:46:59;3.10;;;0.63;;
74749;SDS011;63269;53.330;-6.288;2023-04-12T04:49:25;2.25;;;0.55;;
74749;SDS011;63269;53.330;-6.288;2023-04-12T04:51:50;2.08;;;0.40;;
74749;SDS011;63269;53.330;-6.288;2023-04-12T04:54:16;2.88;;;0.80;;
74749;SDS011;63269;53.330;-6.288;2023-04-12T04:56:42;2.13;;;0.63;;
74749;SDS011;63269;53.330;-6.288;2023-04-12T04:59:07;2.40;;;0.60;;
74749;SDS011;63269;53.330;-6.288;2023-04-12T05:01:32;2.63;;;0.82;;
74749;SDS011;63269;53.330;-6.288;2023-04-12T05:04:01;2.38;;;0.88;;
74749;SDS011;63269;53.330;-6.288;2023-04-12T05:06:28;3.22;;;0.60;;
74749;SDS011;63269;53.330;-6.288;2023-04-12T05:08:53;1.13;;;0.50;;
74749;SDS011;63269;53.330;-6.288;2023-04-12T05:11:19;1.45;;;0.40;;
74749;SDS011;63269;53.330;-6.288;2023-04-12T05:13:44;1.42;;;0.40;;
74749;SDS011;63269;53.330;-6.288;2023-04-12T05:16:10;2.40;;;0.40;;
74749;SDS011;63269;53.330;-6.288;2023-04-12T05:18:35;1.58;;;0.55;;
74749;SDS011;63269;53.330;-6.288;2023-04-12T05:21:01;3.13;;;0.95;;
74749;SDS011;63269;53.330;-6.288;2023-04-12T05:23:28;3.85;;;1.00;;
74749;SDS011;63269;53.330;-6.288;2023-04-12T05:25:53;1.40;;;0.40;;
74749;SDS011;63269;53.330;-6.288;2023-04-12T05:28:19;3.00;;;0.65;;
74749;SDS011;63269;53.330;-6.288;2023-04-12T05:30:44;2.17;;;0.70;;
74749;SDS011;63269;53.330;-6.288;2023-04-12T05:33:10;3.38;;;0.85;;
74749;SDS011;63269;53.330;-6.288;2023-04-12T05:35:36;2.33;;;0.98;;
74749;SDS011;63269;53.330;-6.288;2023-04-12T05:38:01;1.67;;;0.52;;
74749;SDS011;63269;53.330;-6.288;2023-04-12T05:40:27;2.17;;;1.10;;
74749;SDS011;63269;53.330;-6.288;2023-04-12T05:42:52;3.42;;;0.70;;
74749;SDS011;63269;53.330;-6.288;2023-04-12T05:45:18;2.90;;;0.60;;
74749;SDS011;63269;53.330;-6.288;2023-04-12T05:47:43;1.92;;;0.73;;
74749;SDS011;63269;53.330;-6.288;2023-04-12T05:50:09;4.07;;;0.70;;
74749;SDS011;63269;53.330;-6.288;2023-04-12T05:52:38;4.45;;;1.10;;
74749;SDS011;63269;53.330;-6.288;2023-04-12T05:55:03;1.75;;;0.50;;
74749;SDS011;63269;53.330;-6.288;2023-04-12T05:57:29;2.30;;;0.80;;
74749;SDS011;63269;53.330;-6.288;2023-04-12T05:59:55;2.35;;;0.70;;
74749;SDS011;63269;53.330;-6.288;2023-04-12T06:02:20;3.42;;;1.08;;
74749;SDS011;63269;53.330;-6.288;2023-04-12T06:04:46;2.95;;;0.68;;
74749;SDS011;63269;53.330;-6.288;2023-04-12T06:07:12;2.15;;;0.65;;
74749;SDS011;63269;53.330;-6.288;2023-04-12T06:09:41;4.95;;;1.45;;
74749;SDS011;63269;53.330;-6.288;2023-04-12T06:12:07;3.53;;;1.45;;
74749;SDS011;63269;53.330;-6.288;2023-04-12T06:14:32;3.67;;;1.00;;
74749;SDS011;63269;53.330;-6.288;2023-04-12T06:16:57;5.78;;;0.90;;
74749;SDS011;63269;53.330;-6.288;2023-04-12T06:19:23;2.28;;;0.70;;
74749;SDS011;63269;53.330;-6.288;2023-04-12T06:21:48;5.15;;;0.93;;
74749;SDS011;63269;53.330;-6.288;2023-04-12T06:24:15;2.78;;;0.85;;
74749;SDS011;63269;53.330;-6.288;2023-04-12T06:26:41;3.15;;;0.80;;
74749;SDS011;63269;53.330;-6.288;2023-04-12T06:29:10;3.90;;;0.85;;
74749;SDS011;63269;53.330;-6.288;2023-04-12T06:31:36;3.05;;;1.38;;
74749;SDS011;63269;53.330;-6.288;2023-04-12T06:34:01;4.07;;;0.90;;
74749;SDS011;63269;53.330;-6.288;2023-04-12T06:36:27;2.33;;;0.80;;
74749;SDS011;63269;53.330;-6.288;2023-04-12T06:38:52;5.00;;;1.17;;
74749;SDS011;63269;53.330;-6.288;2023-04-12T06:41:19;4.32;;;1.20;;
74749;SDS011;63269;53.330;-6.288;2023-04-12T06:43:46;4.68;;;1.20;;
74749;SDS011;63269;53.330;-6.288;2023-04-12T06:46:11;4.53;;;1.20;;
74749;SDS011;63269;53.330;-6.288;2023-04-12T06:48:39;3.67;;;1.02;;
74749;SDS011;63269;53.330;-6.288;2023-04-12T06:51:05;4.75;;;1.00;;
74749;SDS011;63269;53.330;-6.288;2023-04-12T06:53:31;5.50;;;1.20;;
74749;SDS011;63269;53.330;-6.288;2023-04-12T06:56:02;2.53;;;0.90;;
74749;SDS011;63269;53.330;-6.288;2023-04-12T06:58:28;3.77;;;0.90;;
74749;SDS011;63269;53.330;-6.288;2023-04-12T07:01:02;2.95;;;1.08;;
74749;SDS011;63269;53.330;-6.288;2023-04-12T07:03:31;5.72;;;0.93;;
74749;SDS011;63269;53.330;-6.288;2023-04-12T07:05:57;4.15;;;1.10;;
74749;SDS011;63269;53.330;-6.288;2023-04-12T07:08:30;2.95;;;1.27;;
74749;SDS011;63269;53.330;-6.288;2023-04-12T07:10:57;2.85;;;1.10;;
74749;SDS011;63269;53.330;-6.288;2023-04-12T07:13:22;4.30;;;0.98;;
74749;SDS011;63269;53.330;-6.288;2023-04-12T07:15:48;3.88;;;1.13;;
74749;SDS011;63269;53.330;-6.288;2023-04-12T07:18:14;3.10;;;0.95;;
74749;SDS011;63269;53.330;-6.288;2023-04-12T07:20:40;3.83;;;0.93;;
74749;SDS011;63269;53.330;-6.288;2023-04-12T07:23:06;3.25;;;1.15;;
74749;SDS011;63269;53.330;-6.288;2023-04-12T07:25:31;4.18;;;1.63;;
74749;SDS011;63269;53.330;-6.288;2023-04-12T07:27:57;4.85;;;0.90;;
74749;SDS011;63269;53.330;-6.288;2023-04-12T07:30:22;3.58;;;0.95;;
74749;SDS011;63269;53.330;-6.288;2023-04-12T07:32:47;2.90;;;0.88;;
74749;SDS011;63269;53.330;-6.288;2023-04-12T07:35:13;4.13;;;1.00;;
74749;SDS011;63269;53.330;-6.288;2023-04-12T07:37:39;4.00;;;0.88;;
74749;SDS011;63269;53.330;-6.288;2023-04-12T07:40:04;4.50;;;1.15;;
74749;SDS011;63269;53.330;-6.288;2023-04-12T07:42:30;2.75;;;0.88;;
74749;SDS011;63269;53.330;-6.288;2023-04-12T07:44:56;3.70;;;0.65;;
74749;SDS011;63269;53.330;-6.288;2023-04-12T07:47:22;3.65;;;0.90;;
74749;SDS011;63269;53.330;-6.288;2023-04-12T07:49:47;4.28;;;1.08;;
74749;SDS011;63269;53.330;-6.288;2023-04-12T07:52:13;2.83;;;0.88;;
74749;SDS011;63269;53.330;-6.288;2023-04-12T07:54:38;2.83;;;1.02;;
74749;SDS011;63269;53.330;-6.288;2023-04-12T07:57:04;2.40;;;0.82;;
74749;SDS011;63269;53.330;-6.288;2023-04-12T07:59:29;4.90;;;1.40;;
74749;SDS011;63269;53.330;-6.288;2023-04-12T08:01:55;3.65;;;0.93;;
74749;SDS011;63269;53.330;-6.288;2023-04-12T08:04:21;3.60;;;0.85;;
74749;SDS011;63269;53.330;-6.288;2023-04-12T08:06:46;2.25;;;0.70;;
74749;SDS011;63269;53.330;-6.288;2023-04-12T08:09:12;2.95;;;1.00;;
74749;SDS011;63269;53.330;-6.288;2023-04-12T08:11:37;2.38;;;0.82;;
74749;SDS011;63269;53.330;-6.288;2023-04-12T08:14:03;3.08;;;0.88;;
74749;SDS011;63269;53.330;-6.288;2023-04-12T08:16:28;2.78;;;0.82;;
74749;SDS011;63269;53.330;-6.288;2023-04-12T08:18:54;3.42;;;0.80;;
74749;SDS011;63269;53.330;-6.288;2023-04-12T08:21:19;4.78;;;1.45;;
74749;SDS011;63269;53.330;-6.288;2023-04-12T08:23:45;3.15;;;1.23;;
74749;SDS011;63269;53.330;-6.288;2023-04-12T08:26:10;2.10;;;0.90;;
74749;SDS011;63269;53.330;-6.288;2023-04-12T08:28:36;3.67;;;0.90;;
74749;SDS011;63269;53.330;-6.288;2023-04-12T08:31:02;4.43;;;0.82;;
74749;SDS011;63269;53.330;-6.288;2023-04-12T08:33:28;2.33;;;0.80;;
74749;SDS011;63269;53.330;-6.288;2023-04-12T08:35:53;5.32;;;0.80;;
74749;SDS011;63269;53.330;-6.288;2023-04-12T08:38:19;3.72;;;0.90;;
74749;SDS011;63269;53.330;-6.288;2023-04-12T08:40:45;3.58;;;0.88;;
74749;SDS011;63269;53.330;-6.288;2023-04-12T08:43:11;4.43;;;1.00;;
74749;SDS011;63269;53.330;-6.288;2023-04-12T08:45:37;2.78;;;1.08;;
74749;SDS011;63269;53.330;-6.288;2023-04-12T08:48:03;3.08;;;1.20;;
74749;SDS011;63269;53.330;-6.288;2023-04-12T08:50:29;4.55;;;1.08;;
74749;SDS011;63269;53.330;-6.288;2023-04-12T08:52:57;3.70;;;0.73;;
74749;SDS011;63269;53.330;-6.288;2023-04-12T08:55:23;6.53;;;0.75;;
74749;SDS011;63269;53.330;-6.288;2023-04-12T08:57:49;2.95;;;1.40;;
74749;SDS011;63269;53.330;-6.288;2023-04-12T09:00:18;7.57;;;1.05;;
74749;SDS011;63269;53.330;-6.288;2023-04-12T09:02:44;5.20;;;0.68;;
74749;SDS011;63269;53.330;-6.288;2023-04-12T09:05:12;2.55;;;0.70;;
74749;SDS011;63269;53.330;-6.288;2023-04-12T09:07:39;4.30;;;0.95;;
74749;SDS011;63269;53.330;-6.288;2023-04-12T09:10:05;2.97;;;0.80;;
74749;SDS011;63269;53.330;-6.288;2023-04-12T09:12:31;4.07;;;0.95;;
74749;SDS011;63269;53.330;-6.288;2023-04-12T09:17:34;4.00;;;0.73;;
74749;SDS011;63269;53.330;-6.288;2023-04-12T09:22:41;2.60;;;1.15;;
74749;SDS011;63269;53.330;-6.288;2023-04-12T09:25:13;1.10;;;0.50;;
74749;SDS011;63269;53.330;-6.288;2023-04-12T09:27:46;1.65;;;0.63;;
74749;SDS011;63269;53.330;-6.288;2023-04-12T09:30:12;3.50;;;0.90;;
74749;SDS011;63269;53.330;-6.288;2023-04-12T09:32:39;2.60;;;0.85;;
74749;SDS011;63269;53.330;-6.288;2023-04-12T09:35:05;3.65;;;0.80;;
74749;SDS011;63269;53.330;-6.288;2023-04-12T09:37:31;2.45;;;0.40;;
74749;SDS011;63269;53.330;-6.288;2023-04-12T09:40:00;1.95;;;0.70;;
74749;SDS011;63269;53.330;-6.288;2023-04-12T09:42:29;2.95;;;0.80;;
74749;SDS011;63269;53.330;-6.288;2023-04-12T09:44:55;2.08;;;0.73;;
74749;SDS011;63269;53.330;-6.288;2023-04-12T09:47:25;1.02;;;0.40;;
74749;SDS011;63269;53.330;-6.288;2023-04-12T09:50:03;2.35;;;0.52;;
74749;SDS011;63269;53.330;-6.288;2023-04-12T09:52:37;2.83;;;1.05;;
74749;SDS011;63269;53.330;-6.288;2023-04-12T09:55:09;1.48;;;0.50;;
74749;SDS011;63269;53.330;-6.288;2023-04-12T09:57:41;3.03;;;0.98;;
74749;SDS011;63269;53.330;-6.288;2023-04-12T10:00:08;3.15;;;1.02;;
74749;SDS011;63269;53.330;-6.288;2023-04-12T10:02:39;2.17;;;0.60;;
74749;SDS011;63269;53.330;-6.288;2023-04-12T10:05:06;4.15;;;0.60;;
74749;SDS011;63269;53.330;-6.288;2023-04-12T10:07:34;2.05;;;0.77;;
74749;SDS011;63269;53.330;-6.288;2023-04-12T10:10:01;2.78;;;0.68;;
74749;SDS011;63269;53.330;-6.288;2023-04-12T10:12:28;4.38;;;0.60;;
74749;SDS011;63269;53.330;-6.288;2023-04-12T10:14:54;2.10;;;0.65;;
74749;SDS011;63269;53.330;-6.288;2023-04-12T10:17:20;2.63;;;0.60;;
74749;SDS011;63269;53.330;-6.288;2023-04-12T10:19:47;3.50;;;0.60;;
74749;SDS011;63269;53.330;-6.288;2023-04-12T10:22:12;3.28;;;0.82;;
74749;SDS011;63269;53.330;-6.288;2023-04-12T10:24:39;4.90;;;0.60;;
74749;SDS011;63269;53.330;-6.288;2023-04-12T10:27:05;3.45;;;0.70;;
74749;SDS011;63269;53.330;-6.288;2023-04-12T10:29:33;3.40;;;1.00;;
74749;SDS011;63269;53.330;-6.288;2023-04-12T10:32:20;2.58;;;0.90;;
74749;SDS011;63269;53.330;-6.288;2023-04-12T10:34:51;2.50;;;0.68;;
74749;SDS011;63269;53.330;-6.288;2023-04-12T10:37:17;2.63;;;0.70;;
74749;SDS011;63269;53.330;-6.288;2023-04-12T10:39:44;4.18;;;0.82;;
74749;SDS011;63269;53.330;-6.288;2023-04-12T10:42:22;4.25;;;1.27;;
74749;SDS011;63269;53.330;-6.288;2023-04-12T10:44:51;1.83;;;0.60;;
74749;SDS011;63269;53.330;-6.288;2023-04-12T10:52:43;3.00;;;1.05;;
74749;SDS011;63269;53.330;-6.288;2023-04-12T10:55:42;2.15;;;0.55;;
74749;SDS011;63269;53.330;-6.288;2023-04-12T10:58:09;0.95;;;0.45;;
74749;SDS011;63269;53.330;-6.288;2023-04-12T11:01:36;2.33;;;0.85;;
74749;SDS011;63269;53.330;-6.288;2023-04-12T11:03:30;5.00;;;0.70;;
74749;SDS011;63269;53.330;-6.288;2023-04-12T11:06:00;4.32;;;0.90;;
74749;SDS011;63269;53.330;-6.288;2023-04-12T11:08:31;4.47;;;1.00;;
74749;SDS011;63269;53.330;-6.288;2023-04-12T11:11:03;21.15;;;3.50;;
74749;SDS011;63269;53.330;-6.288;2023-04-12T11:13:33;11.80;;;2.15;;
74749;SDS011;63269;53.330;-6.288;2023-04-12T11:16:02;13.00;;;2.78;;
74749;SDS011;63269;53.330;-6.288;2023-04-12T11:18:32;9.40;;;2.17;;
74749;SDS011;63269;53.330;-6.288;2023-04-12T11:20:58;9.45;;;1.90;;
74749;SDS011;63269;53.330;-6.288;2023-04-12T11:23:23;6.55;;;1.67;;
74749;SDS011;63269;53.330;-6.288;2023-04-12T11:25:50;9.77;;;1.98;;
74749;SDS011;63269;53.330;-6.288;2023-04-12T11:28:18;10.25;;;1.45;;
74749;SDS011;63269;53.330;-6.288;2023-04-12T11:30:53;6.93;;;2.05;;
74749;SDS011;63269;53.330;-6.288;2023-04-12T11:36:11;5.93;;;1.60;;
74749;SDS011;63269;53.330;-6.288;2023-04-12T11:38:37;6.43;;;2.03;;
74749;SDS011;63269;53.330;-6.288;2023-04-12T11:41:04;7.07;;;2.55;;
74749;SDS011;63269;53.330;-6.288;2023-04-12T11:43:34;9.70;;;1.85;;
74749;SDS011;63269;53.330;-6.288;2023-04-12T11:46:02;7.43;;;1.60;;
74749;SDS011;63269;53.330;-6.288;2023-04-12T11:48:28;6.03;;;1.17;;
74749;SDS011;63269;53.330;-6.288;2023-04-12T11:50:54;6.85;;;1.67;;
74749;SDS011;63269;53.330;-6.288;2023-04-12T11:53:26;5.15;;;1.27;;
74749;SDS011;63269;53.330;-6.288;2023-04-12T11:55:53;9.45;;;1.15;;
74749;SDS011;63269;53.330;-6.288;2023-04-12T11:58:27;6.07;;;2.20;;
74749;SDS011;63269;53.330;-6.288;2023-04-12T12:00:53;4.80;;;1.50;;
74749;SDS011;63269;53.330;-6.288;2023-04-12T12:03:21;9.52;;;1.25;;
74749;SDS011;63269;53.330;-6.288;2023-04-12T12:05:47;5.53;;;2.13;;
74749;SDS011;63269;53.330;-6.288;2023-04-12T12:08:13;10.07;;;2.17;;
74749;SDS011;63269;53.330;-6.288;2023-04-12T12:10:39;14.70;;;4.63;;
74749;SDS011;63269;53.330;-6.288;2023-04-12T12:13:11;10.32;;;2.60;;
74749;SDS011;63269;53.330;-6.288;2023-04-12T12:15:38;9.98;;;2.35;;
74749;SDS011;63269;53.330;-6.288;2023-04-12T12:18:08;6.65;;;2.55;;
74749;SDS011;63269;53.330;-6.288;2023-04-12T12:21:07;5.45;;;1.70;;
74749;SDS011;63269;53.330;-6.288;2023-04-12T12:23:29;4.60;;;2.08;;
74749;SDS011;63269;53.330;-6.288;2023-04-12T12:25:56;2.63;;;1.33;;
74749;SDS011;63269;53.330;-6.288;2023-04-12T12:28:22;2.58;;;1.20;;
74749;SDS011;63269;53.330;-6.288;2023-04-12T12:30:51;3.45;;;1.40;;
74749;SDS011;63269;53.330;-6.288;2023-04-12T12:33:18;5.33;;;1.33;;
74749;SDS011;63269;53.330;-6.288;2023-04-12T12:35:44;3.97;;;1.00;;
74749;SDS011;63269;53.330;-6.288;2023-04-12T12:38:09;3.42;;;1.33;;
74749;SDS011;63269;53.330;-6.288;2023-04-12T12:40:35;6.03;;;1.20;;
74749;SDS011;63269;53.330;-6.288;2023-04-12T12:43:00;4.22;;;1.10;;
74749;SDS011;63269;53.330;-6.288;2023-04-12T12:45:27;5.07;;;1.20;;
74749;SDS011;63269;53.330;-6.288;2023-04-12T12:47:57;4.40;;;1.25;;
74749;SDS011;63269;53.330;-6.288;2023-04-12T12:50:26;3.25;;;1.10;;
74749;SDS011;63269;53.330;-6.288;2023-04-12T12:52:53;4.18;;;1.02;;
74749;SDS011;63269;53.330;-6.288;2023-04-12T12:55:19;4.38;;;1.35;;
74749;SDS011;63269;53.330;-6.288;2023-04-12T12:57:46;3.80;;;0.90;;
74749;SDS011;63269;53.330;-6.288;2023-04-12T13:00:13;1.92;;;1.02;;
74749;SDS011;63269;53.330;-6.288;2023-04-12T13:02:40;2.95;;;0.80;;
74749;SDS011;63269;53.330;-6.288;2023-04-12T13:05:06;1.33;;;0.70;;
74749;SDS011;63269;53.330;-6.288;2023-04-12T13:07:32;2.17;;;0.75;;
74749;SDS011;63269;53.330;-6.288;2023-04-12T13:09:58;1.95;;;0.70;;
74749;SDS011;63269;53.330;-6.288;2023-04-12T13:12:24;3.28;;;1.10;;
74749;SDS011;63269;53.330;-6.288;2023-04-12T13:14:49;1.23;;;0.50;;
74749;SDS011;63269;53.330;-6.288;2023-04-12T13:17:15;2.28;;;1.33;;
74749;SDS011;63269;53.330;-6.288;2023-04-12T13:19:40;1.00;;;0.30;;
74749;SDS011;63269;53.330;-6.288;2023-04-12T13:22:06;1.95;;;0.60;;
74749;SDS011;63269;53.330;-6.288;2023-04-12T13:24:32;1.67;;;0.60;;
74749;SDS011;63269;53.330;-6.288;2023-04-12T13:26:59;2.72;;;0.85;;
74749;SDS011;63269;53.330;-6.288;2023-04-12T13:29:24;3.75;;;0.60;;
74749;SDS011;63269;53.330;-6.288;2023-04-12T13:31:50;0.95;;;0.40;;
74749;SDS011;63269;53.330;-6.288;2023-04-12T13:34:15;1.13;;;0.63;;
74749;SDS011;63269;53.330;-6.288;2023-04-12T13:36:41;3.28;;;0.68;;
74749;SDS011;63269;53.330;-6.288;2023-04-12T13:39:06;1.33;;;0.50;;
74749;SDS011;63269;53.330;-6.288;2023-04-12T13:41:32;1.10;;;0.40;;
74749;SDS011;63269;53.330;-6.288;2023-04-12T13:43:58;1.27;;;0.77;;
74749;SDS011;63269;53.330;-6.288;2023-04-12T13:46:24;2.25;;;0.70;;
74749;SDS011;63269;53.330;-6.288;2023-04-12T13:48:49;1.48;;;0.63;;
74749;SDS011;63269;53.330;-6.288;2023-04-12T13:51:15;1.90;;;0.30;;
74749;SDS011;63269;53.330;-6.288;2023-04-12T13:53:42;0.82;;;0.32;;
74749;SDS011;63269;53.330;-6.288;2023-04-12T13:56:07;0.75;;;0.40;;
74749;SDS011;63269;53.330;-6.288;2023-04-12T13:58:33;1.08;;;0.40;;
74749;SDS011;63269;53.330;-6.288;2023-04-12T14:00:58;1.10;;;0.35;;
74749;SDS011;63269;53.330;-6.288;2023-04-12T14:03:25;1.05;;;0.50;;
74749;SDS011;63269;53.330;-6.288;2023-04-12T14:05:50;0.40;;;0.22;;
74749;SDS011;63269;53.330;-6.288;2023-04-12T14:08:16;0.77;;;0.30;;
74749;SDS011;63269;53.330;-6.288;2023-04-12T14:10:41;1.35;;;0.40;;
74749;SDS011;63269;53.330;-6.288;2023-04-12T14:13:07;1.33;;;0.55;;
74749;SDS011;63269;53.330;-6.288;2023-04-12T14:15:32;0.60;;;0.45;;
74749;SDS011;63269;53.330;-6.288;2023-04-12T14:17:58;0.80;;;0.30;;
74749;SDS011;63269;53.330;-6.288;2023-04-12T14:20:23;0.63;;;0.38;;
74749;SDS011;63269;53.330;-6.288;2023-04-12T14:22:49;1.60;;;0.40;;
74749;SDS011;63269;53.330;-6.288;2023-04-12T14:25:14;1.27;;;0.63;;
74749;SDS011;63269;53.330;-6.288;2023-04-12T14:27:40;0.77;;;0.38;;
74749;SDS011;63269;53.330;-6.288;2023-04-12T14:30:05;0.80;;;0.40;;
74749;SDS011;63269;53.330;-6.288;2023-04-12T14:32:32;0.75;;;0.35;;
74749;SDS011;63269;53.330;-6.288;2023-04-12T14:34:58;0.93;;;0.30;;
74749;SDS011;63269;53.330;-6.288;2023-04-12T14:37:23;0.80;;;0.47;;
74749;SDS011;63269;53.330;-6.288;2023-04-12T14:39:49;1.17;;;0.50;;
74749;SDS011;63269;53.330;-6.288;2023-04-12T14:42:16;1.10;;;0.50;;
74749;SDS011;63269;53.330;-6.288;2023-04-12T14:44:42;0.95;;;0.43;;
74749;SDS011;63269;53.330;-6.288;2023-04-12T14:47:08;0.82;;;0.50;;
74749;SDS011;63269;53.330;-6.288;2023-04-12T14:49:34;1.08;;;0.45;;
74749;SDS011;63269;53.330;-6.288;2023-04-12T14:51:59;1.40;;;0.60;;
74749;SDS011;63269;53.330;-6.288;2023-04-12T14:54:25;1.17;;;0.57;;
74749;SDS011;63269;53.330;-6.288;2023-04-12T14:56:51;1.58;;;0.70;;